sensor_id;sensor_type;location;lat;lon;timestamp;P1;durP1;ratioP1;P2;durP2;ratioP2
14681;SDS011;7429;52.498;13.480;2023-04-25T00:00:30;6.00;;;5.37;;
14681;SDS011;7429;52.498;13.480;2023-04-25T00:03:35;6.80;;;5.40;;
14681;SDS011;7429;52.498;13.480;2023-04-25T00:06:41;6.37;;;4.47;;
14681;SDS011;7429;52.498;13.480;2023-04-25T00:09:44;5.90;;;5.37;;
14681;SDS011;7429;52.498;13.480;2023-04-25T00:12:50;7.03;;;5.60;;
14681;SDS011;7429;52.498;13.480;2023-04-25T00:16:08;6.13;;;4.77;;
14681;SDS011;7429;52.498;13.480;2023-04-25T00:19:14;7.17;;;4.33;;
14681;SDS011;7429;52.498;13.480;2023-04-25T00:22:18;7.20;;;5.27;;
14681;SDS011;7429;52.498;13.480;2023-04-25T00:25:22;8.17;;;5.57;;
14681;SDS011;7429;52.498;13.480;2023-04-25T00:28:25;11.10;;;5.10;;
14681;SDS011;7429;52.498;13.480;2023-04-25T00:31:28;7.40;;;5.17;;
14681;SDS011;7429;52.498;13.480;2023-04-25T00:34:33;7.23;;;5.23;;
14681;SDS011;7429;52.498;13.480;2023-04-25T00:37:36;5.43;;;4.93;;
14681;SDS011;7429;52.498;13.480;2023-04-25T00:40:40;6.10;;;4.50;;
14681;SDS011;7429;52.498;13.480;2023-04-25T00:43:47;8.83;;;5.30;;
14681;SDS011;7429;52.498;13.480;2023-04-25T00:46:54;8.20;;;5.47;;
14681;SDS011;7429;52.498;13.480;2023-04-25T00:49:59;7.47;;;4.83;;
14681;SDS011;7429;52.498;13.480;2023-04-25T00:53:02;7.90;;;5.17;;
14681;SDS011;7429;52.498;13.480;2023-04-25T00:56:07;6.70;;;5.47;;
14681;SDS011;7429;52.498;13.480;2023-04-25T00:59:12;8.17;;;5.97;;
14681;SDS011;7429;52.498;13.480;2023-04-25T01:02:17;5.97;;;5.07;;
14681;SDS011;7429;52.498;13.480;2023-04-25T01:05:24;6.67;;;6.07;;
14681;SDS011;7429;52.498;13.480;2023-04-25T01:08:27;8.10;;;5.40;;
14681;SDS011;7429;52.498;13.480;2023-04-25T01:11:31;6.33;;;5.50;;
14681;SDS011;7429;52.498;13.480;2023-04-25T01:14:34;8.20;;;5.57;;
14681;SDS011;7429;52.498;13.480;2023-04-25T01:17:40;9.83;;;5.33;;
14681;SDS011;7429;52.498;13.480;2023-04-25T01:20:45;8.67;;;5.33;;
14681;SDS011;7429;52.498;13.480;2023-04-25T01:23:51;10.10;;;6.27;;
14681;SDS011;7429;52.498;13.480;2023-04-25T01:26:55;13.73;;;5.70;;
14681;SDS011;7429;52.498;13.480;2023-04-25T01:29:59;9.60;;;5.73;;
14681;SDS011;7429;52.498;13.480;2023-04-25T01:33:05;11.77;;;5.33;;
14681;SDS011;7429;52.498;13.480;2023-04-25T01:36:10;9.83;;;5.87;;
14681;SDS011;7429;52.498;13.480;2023-04-25T01:39:16;7.83;;;5.77;;
14681;SDS011;7429;52.498;13.480;2023-04-25T01:42:21;8.13;;;5.73;;
14681;SDS011;7429;52.498;13.480;2023-04-25T01:45:24;10.17;;;6.10;;
14681;SDS011;7429;52.498;13.480;2023-04-25T01:48:28;6.60;;;5.33;;
14681;SDS011;7429;52.498;13.480;2023-04-25T01:51:31;8.10;;;5.93;;
14681;SDS011;7429;52.498;13.480;2023-04-25T01:54:36;7.23;;;6.00;;
14681;SDS011;7429;52.498;13.480;2023-04-25T01:57:40;8.33;;;6.00;;
14681;SDS011;7429;52.498;13.480;2023-04-25T02:00:43;11.70;;;7.43;;
14681;SDS011;7429;52.498;13.480;2023-04-25T02:03:46;11.60;;;7.13;;
14681;SDS011;7429;52.498;13.480;2023-04-25T02:06:59;10.43;;;6.87;;
14681;SDS011;7429;52.498;13.480;2023-04-25T02:10:14;9.90;;;6.43;;
14681;SDS011;7429;52.498;13.480;2023-04-25T02:13:28;9.23;;;7.27;;
14681;SDS011;7429;52.498;13.480;2023-04-25T02:16:35;8.50;;;6.23;;
14681;SDS011;7429;52.498;13.480;2023-04-25T02:19:41;13.57;;;7.40;;
14681;SDS011;7429;52.498;13.480;2023-04-25T02:22:44;11.13;;;7.43;;
14681;SDS011;7429;52.498;13.480;2023-04-25T02:25:49;11.47;;;6.80;;
14681;SDS011;7429;52.498;13.480;2023-04-25T02:28:52;10.37;;;6.50;;
14681;SDS011;7429;52.498;13.480;2023-04-25T02:31:56;9.83;;;6.13;;
14681;SDS011;7429;52.498;13.480;2023-04-25T02:35:00;8.37;;;6.03;;
14681;SDS011;7429;52.498;13.480;2023-04-25T02:38:05;12.07;;;6.20;;
14681;SDS011;7429;52.498;13.480;2023-04-25T02:41:09;10.90;;;6.30;;
14681;SDS011;7429;52.498;13.480;2023-04-25T02:44:12;7.33;;;6.63;;
14681;SDS011;7429;52.498;13.480;2023-04-25T02:47:16;6.97;;;6.33;;
14681;SDS011;7429;52.498;13.480;2023-04-25T02:50:19;10.10;;;7.90;;
14681;SDS011;7429;52.498;13.480;2023-04-25T02:53:22;8.37;;;6.83;;
14681;SDS011;7429;52.498;13.480;2023-04-25T02:56:28;11.47;;;6.10;;
14681;SDS011;7429;52.498;13.480;2023-04-25T02:59:31;7.90;;;6.47;;
14681;SDS011;7429;52.498;13.480;2023-04-25T03:02:35;10.30;;;7.23;;
14681;SDS011;7429;52.498;13.480;2023-04-25T03:05:38;9.27;;;7.23;;
14681;SDS011;7429;52.498;13.480;2023-04-25T03:08:41;7.50;;;6.60;;
14681;SDS011;7429;52.498;13.480;2023-04-25T03:11:46;8.40;;;6.13;;
14681;SDS011;7429;52.498;13.480;2023-04-25T03:14:49;11.33;;;6.90;;
14681;SDS011;7429;52.498;13.480;2023-04-25T03:17:52;8.67;;;6.87;;
14681;SDS011;7429;52.498;13.480;2023-04-25T03:20:58;10.80;;;7.63;;
14681;SDS011;7429;52.498;13.480;2023-04-25T03:24:02;10.97;;;7.17;;
14681;SDS011;7429;52.498;13.480;2023-04-25T03:27:10;13.83;;;7.53;;
14681;SDS011;7429;52.498;13.480;2023-04-25T03:30:13;9.67;;;7.00;;
14681;SDS011;7429;52.498;13.480;2023-04-25T03:33:18;11.73;;;6.33;;
14681;SDS011;7429;52.498;13.480;2023-04-25T03:36:21;12.43;;;7.30;;
14681;SDS011;7429;52.498;13.480;2023-04-25T03:39:25;11.90;;;7.73;;
14681;SDS011;7429;52.498;13.480;2023-04-25T03:42:30;10.77;;;7.53;;
14681;SDS011;7429;52.498;13.480;2023-04-25T03:45:33;9.90;;;6.67;;
14681;SDS011;7429;52.498;13.480;2023-04-25T03:48:37;13.90;;;7.27;;
14681;SDS011;7429;52.498;13.480;2023-04-25T03:51:41;11.60;;;7.43;;
14681;SDS011;7429;52.498;13.480;2023-04-25T03:54:44;10.73;;;7.20;;
14681;SDS011;7429;52.498;13.480;2023-04-25T03:57:53;13.03;;;8.37;;
14681;SDS011;7429;52.498;13.480;2023-04-25T04:00:56;10.03;;;7.33;;
14681;SDS011;7429;52.498;13.480;2023-04-25T04:04:00;8.67;;;6.97;;
14681;SDS011;7429;52.498;13.480;2023-04-25T04:07:04;13.17;;;7.33;;
14681;SDS011;7429;52.498;13.480;2023-04-25T04:10:10;12.27;;;7.33;;
14681;SDS011;7429;52.498;13.480;2023-04-25T04:13:16;11.10;;;6.97;;
14681;SDS011;7429;52.498;13.480;2023-04-25T04:16:19;11.03;;;7.60;;
14681;SDS011;7429;52.498;13.480;2023-04-25T04:19:22;11.53;;;7.33;;
14681;SDS011;7429;52.498;13.480;2023-04-25T04:22:38;10.10;;;7.03;;
14681;SDS011;7429;52.498;13.480;2023-04-25T04:25:44;9.80;;;6.73;;
14681;SDS011;7429;52.498;13.480;2023-04-25T04:29:09;7.87;;;7.07;;
14681;SDS011;7429;52.498;13.480;2023-04-25T04:32:23;12.60;;;6.30;;
14681;SDS011;7429;52.498;13.480;2023-04-25T04:35:29;12.07;;;6.90;;
14681;SDS011;7429;52.498;13.480;2023-04-25T04:38:32;9.93;;;5.83;;
14681;SDS011;7429;52.498;13.480;2023-04-25T04:41:37;10.73;;;7.23;;
14681;SDS011;7429;52.498;13.480;2023-04-25T04:44:46;9.77;;;6.73;;
14681;SDS011;7429;52.498;13.480;2023-04-25T04:48:02;9.30;;;6.53;;
14681;SDS011;7429;52.498;13.480;2023-04-25T04:51:29;21.37;;;6.13;;
14681;SDS011;7429;52.498;13.480;2023-04-25T04:54:49;9.03;;;7.27;;
14681;SDS011;7429;52.498;13.480;2023-04-25T04:58:05;9.73;;;6.60;;
14681;SDS011;7429;52.498;13.480;2023-04-25T05:01:28;8.80;;;7.07;;
14681;SDS011;7429;52.498;13.480;2023-04-25T05:04:57;13.13;;;7.40;;
14681;SDS011;7429;52.498;13.480;2023-04-25T05:08:22;9.70;;;7.20;;
14681;SDS011;7429;52.498;13.480;2023-04-25T05:11:48;8.20;;;6.17;;
14681;SDS011;7429;52.498;13.480;2023-04-25T05:15:01;9.93;;;7.00;;
14681;SDS011;7429;52.498;13.480;2023-04-25T05:18:25;12.93;;;6.87;;
14681;SDS011;7429;52.498;13.480;2023-04-25T05:21:39;13.73;;;6.40;;
14681;SDS011;7429;52.498;13.480;2023-04-25T05:24:52;10.40;;;6.73;;
14681;SDS011;7429;52.498;13.480;2023-04-25T05:28:56;11.13;;;6.83;;
14681;SDS011;7429;52.498;13.480;2023-04-25T05:32:33;8.80;;;6.57;;
14681;SDS011;7429;52.498;13.480;2023-04-25T05:35:41;10.27;;;6.90;;
14681;SDS011;7429;52.498;13.480;2023-04-25T05:38:54;15.77;;;8.43;;
14681;SDS011;7429;52.498;13.480;2023-04-25T05:42:23;8.23;;;6.47;;
14681;SDS011;7429;52.498;13.480;2023-04-25T05:45:45;8.63;;;6.60;;
14681;SDS011;7429;52.498;13.480;2023-04-25T05:49:14;8.67;;;6.67;;
14681;SDS011;7429;52.498;13.480;2023-04-25T05:53:00;9.37;;;6.67;;
14681;SDS011;7429;52.498;13.480;2023-04-25T05:56:12;11.80;;;7.37;;
14681;SDS011;7429;52.498;13.480;2023-04-25T05:59:16;11.93;;;7.53;;
14681;SDS011;7429;52.498;13.480;2023-04-25T06:02:20;14.13;;;7.67;;
14681;SDS011;7429;52.498;13.480;2023-04-25T06:05:24;13.87;;;8.23;;
14681;SDS011;7429;52.498;13.480;2023-04-25T06:08:30;10.70;;;7.53;;
14681;SDS011;7429;52.498;13.480;2023-04-25T06:11:34;16.23;;;8.63;;
14681;SDS011;7429;52.498;13.480;2023-04-25T06:14:37;13.07;;;7.47;;
14681;SDS011;7429;52.498;13.480;2023-04-25T06:17:40;12.47;;;8.20;;
14681;SDS011;7429;52.498;13.480;2023-04-25T06:20:43;12.07;;;8.70;;
14681;SDS011;7429;52.498;13.480;2023-04-25T06:23:49;13.43;;;8.23;;
14681;SDS011;7429;52.498;13.480;2023-04-25T06:26:56;10.07;;;7.87;;
14681;SDS011;7429;52.498;13.480;2023-04-25T06:29:59;10.63;;;7.83;;
14681;SDS011;7429;52.498;13.480;2023-04-25T06:33:05;14.40;;;8.30;;
14681;SDS011;7429;52.498;13.480;2023-04-25T06:36:10;10.70;;;7.80;;
14681;SDS011;7429;52.498;13.480;2023-04-25T06:39:16;17.77;;;8.77;;
14681;SDS011;7429;52.498;13.480;2023-04-25T06:42:22;8.67;;;7.63;;
14681;SDS011;7429;52.498;13.480;2023-04-25T06:45:30;11.13;;;8.40;;
14681;SDS011;7429;52.498;13.480;2023-04-25T06:48:33;11.90;;;8.70;;
14681;SDS011;7429;52.498;13.480;2023-04-25T06:51:36;11.30;;;8.20;;
14681;SDS011;7429;52.498;13.480;2023-04-25T06:54:41;14.97;;;8.03;;
14681;SDS011;7429;52.498;13.480;2023-04-25T06:57:55;13.50;;;8.73;;
14681;SDS011;7429;52.498;13.480;2023-04-25T07:01:21;11.23;;;7.77;;
14681;SDS011;7429;52.498;13.480;2023-04-25T07:04:25;15.10;;;8.53;;
14681;SDS011;7429;52.498;13.480;2023-04-25T07:07:30;14.77;;;8.23;;
14681;SDS011;7429;52.498;13.480;2023-04-25T07:10:35;12.70;;;8.60;;
14681;SDS011;7429;52.498;13.480;2023-04-25T07:13:39;11.23;;;7.70;;
14681;SDS011;7429;52.498;13.480;2023-04-25T07:16:42;13.77;;;8.57;;
14681;SDS011;7429;52.498;13.480;2023-04-25T07:19:45;14.60;;;8.03;;
14681;SDS011;7429;52.498;13.480;2023-04-25T07:22:48;13.93;;;7.47;;
14681;SDS011;7429;52.498;13.480;2023-04-25T07:25:54;11.20;;;8.17;;
14681;SDS011;7429;52.498;13.480;2023-04-25T07:28:59;11.73;;;7.27;;
14681;SDS011;7429;52.498;13.480;2023-04-25T07:32:03;16.93;;;8.30;;
14681;SDS011;7429;52.498;13.480;2023-04-25T07:35:06;12.97;;;7.97;;
14681;SDS011;7429;52.498;13.480;2023-04-25T07:38:10;14.80;;;7.83;;
14681;SDS011;7429;52.498;13.480;2023-04-25T07:41:15;14.07;;;7.67;;
14681;SDS011;7429;52.498;13.480;2023-04-25T07:44:18;11.63;;;7.83;;
14681;SDS011;7429;52.498;13.480;2023-04-25T07:47:22;11.23;;;7.73;;
14681;SDS011;7429;52.498;13.480;2023-04-25T07:50:26;16.97;;;7.73;;
14681;SDS011;7429;52.498;13.480;2023-04-25T07:53:31;14.30;;;7.53;;
14681;SDS011;7429;52.498;13.480;2023-04-25T07:56:41;13.30;;;7.60;;
14681;SDS011;7429;52.498;13.480;2023-04-25T07:59:53;21.47;;;7.83;;
14681;SDS011;7429;52.498;13.480;2023-04-25T08:02:57;19.10;;;7.73;;
14681;SDS011;7429;52.498;13.480;2023-04-25T08:06:00;18.43;;;8.10;;
14681;SDS011;7429;52.498;13.480;2023-04-25T08:09:17;18.63;;;7.47;;
14681;SDS011;7429;52.498;13.480;2023-04-25T08:12:22;24.63;;;8.67;;
14681;SDS011;7429;52.498;13.480;2023-04-25T08:15:26;21.00;;;8.27;;
14681;SDS011;7429;52.498;13.480;2023-04-25T08:18:29;22.60;;;6.90;;
14681;SDS011;7429;52.498;13.480;2023-04-25T08:21:33;20.07;;;7.67;;
14681;SDS011;7429;52.498;13.480;2023-04-25T08:24:41;21.80;;;7.40;;
14681;SDS011;7429;52.498;13.480;2023-04-25T08:27:46;18.73;;;8.30;;
14681;SDS011;7429;52.498;13.480;2023-04-25T08:30:51;21.87;;;6.73;;
14681;SDS011;7429;52.498;13.480;2023-04-25T08:33:54;20.73;;;7.90;;
14681;SDS011;7429;52.498;13.480;2023-04-25T08:37:09;23.60;;;7.93;;
14681;SDS011;7429;52.498;13.480;2023-04-25T08:40:26;15.57;;;6.77;;
14681;SDS011;7429;52.498;13.480;2023-04-25T08:43:39;21.57;;;8.03;;
14681;SDS011;7429;52.498;13.480;2023-04-25T08:46:46;21.13;;;7.90;;
14681;SDS011;7429;52.498;13.480;2023-04-25T08:50:05;19.57;;;7.17;;
14681;SDS011;7429;52.498;13.480;2023-04-25T08:53:12;22.57;;;6.60;;
14681;SDS011;7429;52.498;13.480;2023-04-25T08:56:21;21.13;;;6.47;;
14681;SDS011;7429;52.498;13.480;2023-04-25T08:59:26;22.53;;;7.10;;
14681;SDS011;7429;52.498;13.480;2023-04-25T09:02:30;16.00;;;6.93;;
14681;SDS011;7429;52.498;13.480;2023-04-25T09:05:37;21.10;;;6.90;;
14681;SDS011;7429;52.498;13.480;2023-04-25T09:08:42;21.30;;;6.70;;
14681;SDS011;7429;52.498;13.480;2023-04-25T09:11:45;16.13;;;6.20;;
14681;SDS011;7429;52.498;13.480;2023-04-25T09:15:02;19.07;;;6.40;;
14681;SDS011;7429;52.498;13.480;2023-04-25T09:18:44;15.43;;;6.03;;
14681;SDS011;7429;52.498;13.480;2023-04-25T09:21:53;15.33;;;5.43;;
14681;SDS011;7429;52.498;13.480;2023-04-25T09:24:57;18.83;;;5.77;;
14681;SDS011;7429;52.498;13.480;2023-04-25T09:28:03;16.37;;;5.60;;
14681;SDS011;7429;52.498;13.480;2023-04-25T09:31:10;16.97;;;5.13;;
14681;SDS011;7429;52.498;13.480;2023-04-25T09:34:18;16.33;;;5.37;;
14681;SDS011;7429;52.498;13.480;2023-04-25T09:37:29;12.70;;;5.57;;
14681;SDS011;7429;52.498;13.480;2023-04-25T09:40:51;19.83;;;6.30;;
14681;SDS011;7429;52.498;13.480;2023-04-25T09:44:07;14.20;;;5.50;;
14681;SDS011;7429;52.498;13.480;2023-04-25T09:47:15;27.23;;;5.97;;
14681;SDS011;7429;52.498;13.480;2023-04-25T09:50:19;15.60;;;5.60;;
14681;SDS011;7429;52.498;13.480;2023-04-25T09:53:33;13.60;;;5.07;;
14681;SDS011;7429;52.498;13.480;2023-04-25T09:56:53;20.93;;;4.77;;
14681;SDS011;7429;52.498;13.480;2023-04-25T09:59:56;12.93;;;5.00;;
14681;SDS011;7429;52.498;13.480;2023-04-25T10:03:16;11.03;;;4.70;;
14681;SDS011;7429;52.498;13.480;2023-04-25T10:06:31;16.30;;;5.20;;
14681;SDS011;7429;52.498;13.480;2023-04-25T10:09:37;14.67;;;5.47;;
14681;SDS011;7429;52.498;13.480;2023-04-25T10:12:41;18.60;;;5.43;;
14681;SDS011;7429;52.498;13.480;2023-04-25T10:15:45;20.07;;;6.13;;
14681;SDS011;7429;52.498;13.480;2023-04-25T10:18:51;15.50;;;5.17;;
14681;SDS011;7429;52.498;13.480;2023-04-25T10:21:57;12.10;;;5.10;;
14681;SDS011;7429;52.498;13.480;2023-04-25T10:25:07;11.43;;;4.77;;
14681;SDS011;7429;52.498;13.480;2023-04-25T10:28:11;12.23;;;4.63;;
14681;SDS011;7429;52.498;13.480;2023-04-25T10:31:15;16.80;;;5.80;;
14681;SDS011;7429;52.498;13.480;2023-04-25T10:34:23;15.27;;;5.33;;
14681;SDS011;7429;52.498;13.480;2023-04-25T10:37:28;13.40;;;5.17;;
14681;SDS011;7429;52.498;13.480;2023-04-25T10:40:32;12.07;;;5.43;;
14681;SDS011;7429;52.498;13.480;2023-04-25T10:43:37;13.03;;;4.77;;
14681;SDS011;7429;52.498;13.480;2023-04-25T10:46:41;11.23;;;5.00;;
14681;SDS011;7429;52.498;13.480;2023-04-25T10:49:48;14.17;;;5.10;;
14681;SDS011;7429;52.498;13.480;2023-04-25T10:52:53;19.43;;;5.37;;
14681;SDS011;7429;52.498;13.480;2023-04-25T10:55:56;13.57;;;5.73;;
14681;SDS011;7429;52.498;13.480;2023-04-25T10:59:06;12.77;;;4.80;;
14681;SDS011;7429;52.498;13.480;2023-04-25T11:02:11;15.13;;;6.40;;
14681;SDS011;7429;52.498;13.480;2023-04-25T11:05:22;11.67;;;4.87;;
14681;SDS011;7429;52.498;13.480;2023-04-25T11:08:37;9.67;;;5.10;;
14681;SDS011;7429;52.498;13.480;2023-04-25T11:11:53;12.77;;;5.40;;
14681;SDS011;7429;52.498;13.480;2023-04-25T11:14:58;15.63;;;6.13;;
14681;SDS011;7429;52.498;13.480;2023-04-25T11:18:02;16.63;;;5.07;;
14681;SDS011;7429;52.498;13.480;2023-04-25T11:21:07;10.70;;;4.60;;
14681;SDS011;7429;52.498;13.480;2023-04-25T11:24:11;11.07;;;4.40;;
14681;SDS011;7429;52.498;13.480;2023-04-25T11:27:14;13.83;;;4.40;;
14681;SDS011;7429;52.498;13.480;2023-04-25T11:30:18;13.60;;;5.00;;
14681;SDS011;7429;52.498;13.480;2023-04-25T11:33:22;10.40;;;4.30;;
14681;SDS011;7429;52.498;13.480;2023-04-25T11:36:28;13.63;;;4.57;;
14681;SDS011;7429;52.498;13.480;2023-04-25T11:39:35;16.33;;;5.20;;
14681;SDS011;7429;52.498;13.480;2023-04-25T11:42:38;13.33;;;4.77;;
14681;SDS011;7429;52.498;13.480;2023-04-25T11:45:46;13.33;;;4.63;;
14681;SDS011;7429;52.498;13.480;2023-04-25T11:48:50;9.87;;;3.83;;
14681;SDS011;7429;52.498;13.480;2023-04-25T11:51:56;16.77;;;5.27;;
14681;SDS011;7429;52.498;13.480;2023-04-25T11:54:59;8.10;;;3.77;;
14681;SDS011;7429;52.498;13.480;2023-04-25T11:58:03;12.13;;;3.77;;
14681;SDS011;7429;52.498;13.480;2023-04-25T12:01:06;9.60;;;4.33;;
14681;SDS011;7429;52.498;13.480;2023-04-25T12:04:10;10.90;;;4.50;;
14681;SDS011;7429;52.498;13.480;2023-04-25T12:07:21;16.03;;;4.60;;
14681;SDS011;7429;52.498;13.480;2023-04-25T12:10:31;11.60;;;4.60;;
14681;SDS011;7429;52.498;13.480;2023-04-25T12:13:34;12.33;;;5.07;;
14681;SDS011;7429;52.498;13.480;2023-04-25T12:16:41;8.90;;;4.23;;
14681;SDS011;7429;52.498;13.480;2023-04-25T12:19:46;10.47;;;5.23;;
14681;SDS011;7429;52.498;13.480;2023-04-25T12:22:51;11.37;;;4.50;;
14681;SDS011;7429;52.498;13.480;2023-04-25T12:25:54;12.37;;;4.93;;
14681;SDS011;7429;52.498;13.480;2023-04-25T12:28:59;11.10;;;4.73;;
14681;SDS011;7429;52.498;13.480;2023-04-25T12:32:02;8.87;;;4.03;;
14681;SDS011;7429;52.498;13.480;2023-04-25T12:35:07;6.67;;;3.83;;
14681;SDS011;7429;52.498;13.480;2023-04-25T12:38:12;9.43;;;4.50;;
14681;SDS011;7429;52.498;13.480;2023-04-25T12:41:24;11.23;;;4.70;;
14681;SDS011;7429;52.498;13.480;2023-04-25T12:44:27;11.03;;;4.70;;
14681;SDS011;7429;52.498;13.480;2023-04-25T12:47:30;9.00;;;4.00;;
14681;SDS011;7429;52.498;13.480;2023-04-25T12:50:36;7.77;;;4.67;;
14681;SDS011;7429;52.498;13.480;2023-04-25T12:53:41;9.73;;;4.87;;
14681;SDS011;7429;52.498;13.480;2023-04-25T12:56:44;7.93;;;4.63;;
14681;SDS011;7429;52.498;13.480;2023-04-25T12:59:47;9.40;;;4.57;;
14681;SDS011;7429;52.498;13.480;2023-04-25T13:02:53;13.53;;;4.60;;
14681;SDS011;7429;52.498;13.480;2023-04-25T13:05:57;9.90;;;4.53;;
14681;SDS011;7429;52.498;13.480;2023-04-25T13:09:01;7.20;;;4.57;;
14681;SDS011;7429;52.498;13.480;2023-04-25T13:12:06;4.00;;;3.67;;
14681;SDS011;7429;52.498;13.480;2023-04-25T13:15:09;7.40;;;3.60;;
14681;SDS011;7429;52.498;13.480;2023-04-25T13:18:13;12.50;;;3.97;;
14681;SDS011;7429;52.498;13.480;2023-04-25T13:21:18;5.50;;;3.70;;
14681;SDS011;7429;52.498;13.480;2023-04-25T13:24:23;7.67;;;3.10;;
14681;SDS011;7429;52.498;13.480;2023-04-25T13:27:26;5.53;;;3.73;;
14681;SDS011;7429;52.498;13.480;2023-04-25T13:30:30;7.57;;;3.53;;
14681;SDS011;7429;52.498;13.480;2023-04-25T13:33:33;10.63;;;3.47;;
14681;SDS011;7429;52.498;13.480;2023-04-25T13:36:36;9.13;;;3.90;;
14681;SDS011;7429;52.498;13.480;2023-04-25T13:39:40;6.67;;;3.43;;
14681;SDS011;7429;52.498;13.480;2023-04-25T13:42:43;8.00;;;4.00;;
14681;SDS011;7429;52.498;13.480;2023-04-25T13:45:46;9.50;;;3.83;;
14681;SDS011;7429;52.498;13.480;2023-04-25T13:48:50;11.80;;;4.10;;
14681;SDS011;7429;52.498;13.480;2023-04-25T13:52:00;7.27;;;4.07;;
14681;SDS011;7429;52.498;13.480;2023-04-25T13:55:07;12.73;;;4.73;;
14681;SDS011;7429;52.498;13.480;2023-04-25T13:58:10;6.53;;;3.50;;
14681;SDS011;7429;52.498;13.480;2023-04-25T14:01:14;7.40;;;3.60;;
14681;SDS011;7429;52.498;13.480;2023-04-25T14:04:17;8.87;;;3.93;;
14681;SDS011;7429;52.498;13.480;2023-04-25T14:07:21;9.17;;;4.10;;
14681;SDS011;7429;52.498;13.480;2023-04-25T14:10:25;10.93;;;3.80;;
14681;SDS011;7429;52.498;13.480;2023-04-25T14:13:29;12.83;;;4.37;;
14681;SDS011;7429;52.498;13.480;2023-04-25T14:16:32;8.40;;;4.77;;
14681;SDS011;7429;52.498;13.480;2023-04-25T14:19:36;8.40;;;4.47;;
14681;SDS011;7429;52.498;13.480;2023-04-25T14:22:44;10.33;;;4.40;;
14681;SDS011;7429;52.498;13.480;2023-04-25T14:25:49;8.00;;;3.53;;
14681;SDS011;7429;52.498;13.480;2023-04-25T14:28:53;8.13;;;3.70;;
14681;SDS011;7429;52.498;13.480;2023-04-25T14:31:57;5.43;;;3.57;;
14681;SDS011;7429;52.498;13.480;2023-04-25T14:35:00;6.73;;;3.60;;
14681;SDS011;7429;52.498;13.480;2023-04-25T14:38:03;9.33;;;4.30;;
14681;SDS011;7429;52.498;13.480;2023-04-25T14:41:08;9.57;;;4.83;;
14681;SDS011;7429;52.498;13.480;2023-04-25T14:44:12;8.57;;;4.03;;
14681;SDS011;7429;52.498;13.480;2023-04-25T14:47:15;7.73;;;3.80;;
14681;SDS011;7429;52.498;13.480;2023-04-25T14:50:18;9.10;;;3.87;;
14681;SDS011;7429;52.498;13.480;2023-04-25T14:53:21;5.73;;;3.60;;
14681;SDS011;7429;52.498;13.480;2023-04-25T14:56:25;4.70;;;3.93;;
14681;SDS011;7429;52.498;13.480;2023-04-25T14:59:29;8.30;;;4.47;;
14681;SDS011;7429;52.498;13.480;2023-04-25T15:02:32;10.50;;;4.40;;
14681;SDS011;7429;52.498;13.480;2023-04-25T15:05:36;7.17;;;3.47;;
14681;SDS011;7429;52.498;13.480;2023-04-25T15:08:39;7.80;;;3.80;;
14681;SDS011;7429;52.498;13.480;2023-04-25T15:11:44;6.13;;;3.50;;
14681;SDS011;7429;52.498;13.480;2023-04-25T15:14:47;8.67;;;3.70;;
14681;SDS011;7429;52.498;13.480;2023-04-25T15:17:50;9.47;;;3.60;;
14681;SDS011;7429;52.498;13.480;2023-04-25T15:20:53;5.37;;;3.80;;
14681;SDS011;7429;52.498;13.480;2023-04-25T15:23:56;9.97;;;4.77;;
14681;SDS011;7429;52.498;13.480;2023-04-25T15:27:01;9.57;;;3.80;;
14681;SDS011;7429;52.498;13.480;2023-04-25T15:30:06;6.97;;;4.03;;
14681;SDS011;7429;52.498;13.480;2023-04-25T15:33:12;7.10;;;3.70;;
14681;SDS011;7429;52.498;13.480;2023-04-25T15:36:16;6.77;;;3.80;;
14681;SDS011;7429;52.498;13.480;2023-04-25T15:39:20;8.87;;;3.50;;
14681;SDS011;7429;52.498;13.480;2023-04-25T15:42:24;4.87;;;2.90;;
14681;SDS011;7429;52.498;13.480;2023-04-25T15:45:28;8.10;;;3.30;;
14681;SDS011;7429;52.498;13.480;2023-04-25T15:48:33;6.97;;;3.83;;
14681;SDS011;7429;52.498;13.480;2023-04-25T15:51:37;4.17;;;3.77;;
14681;SDS011;7429;52.498;13.480;2023-04-25T15:54:40;8.57;;;3.40;;
14681;SDS011;7429;52.498;13.480;2023-04-25T15:57:44;7.93;;;3.57;;
14681;SDS011;7429;52.498;13.480;2023-04-25T16:00:51;8.13;;;3.70;;
14681;SDS011;7429;52.498;13.480;2023-04-25T16:03:58;10.20;;;3.47;;
14681;SDS011;7429;52.498;13.480;2023-04-25T16:07:03;3.40;;;3.10;;
14681;SDS011;7429;52.498;13.480;2023-04-25T16:10:07;5.43;;;3.47;;
14681;SDS011;7429;52.498;13.480;2023-04-25T16:13:14;5.33;;;2.90;;
14681;SDS011;7429;52.498;13.480;2023-04-25T16:16:17;9.40;;;3.27;;
14681;SDS011;7429;52.498;13.480;2023-04-25T16:19:20;6.60;;;3.27;;
14681;SDS011;7429;52.498;13.480;2023-04-25T16:22:23;8.40;;;4.00;;
14681;SDS011;7429;52.498;13.480;2023-04-25T16:25:29;4.73;;;3.30;;
14681;SDS011;7429;52.498;13.480;2023-04-25T16:28:33;7.10;;;4.03;;
14681;SDS011;7429;52.498;13.480;2023-04-25T16:31:40;7.50;;;3.50;;
14681;SDS011;7429;52.498;13.480;2023-04-25T16:34:44;7.23;;;3.17;;
14681;SDS011;7429;52.498;13.480;2023-04-25T16:37:47;6.07;;;3.13;;
14681;SDS011;7429;52.498;13.480;2023-04-25T16:40:53;6.53;;;3.00;;
14681;SDS011;7429;52.498;13.480;2023-04-25T16:43:57;3.73;;;3.20;;
14681;SDS011;7429;52.498;13.480;2023-04-25T16:47:01;5.27;;;3.27;;
14681;SDS011;7429;52.498;13.480;2023-04-25T16:50:06;3.93;;;2.80;;
14681;SDS011;7429;52.498;13.480;2023-04-25T16:53:10;6.53;;;3.77;;
14681;SDS011;7429;52.498;13.480;2023-04-25T16:56:14;3.53;;;3.23;;
14681;SDS011;7429;52.498;13.480;2023-04-25T16:59:19;5.63;;;3.50;;
14681;SDS011;7429;52.498;13.480;2023-04-25T17:02:22;4.77;;;3.43;;
14681;SDS011;7429;52.498;13.480;2023-04-25T17:05:27;4.33;;;2.80;;
14681;SDS011;7429;52.498;13.480;2023-04-25T17:08:33;5.57;;;2.77;;
14681;SDS011;7429;52.498;13.480;2023-04-25T17:11:38;6.70;;;3.20;;
14681;SDS011;7429;52.498;13.480;2023-04-25T17:14:42;7.63;;;3.00;;
14681;SDS011;7429;52.498;13.480;2023-04-25T17:17:47;6.37;;;3.70;;
14681;SDS011;7429;52.498;13.480;2023-04-25T17:20:53;3.07;;;2.60;;
14681;SDS011;7429;52.498;13.480;2023-04-25T17:23:56;6.80;;;3.47;;
14681;SDS011;7429;52.498;13.480;2023-04-25T17:27:00;5.20;;;3.73;;
14681;SDS011;7429;52.498;13.480;2023-04-25T17:30:05;7.27;;;3.90;;
14681;SDS011;7429;52.498;13.480;2023-04-25T17:33:14;8.20;;;3.13;;
14681;SDS011;7429;52.498;13.480;2023-04-25T17:36:17;6.50;;;3.60;;
14681;SDS011;7429;52.498;13.480;2023-04-25T17:39:23;7.23;;;3.73;;
14681;SDS011;7429;52.498;13.480;2023-04-25T17:42:26;5.37;;;3.77;;
14681;SDS011;7429;52.498;13.480;2023-04-25T17:45:31;9.80;;;4.23;;
14681;SDS011;7429;52.498;13.480;2023-04-25T17:54:01;8.47;;;3.00;;
14681;SDS011;7429;52.498;13.480;2023-04-25T17:57:05;7.63;;;3.40;;
14681;SDS011;7429;52.498;13.480;2023-04-25T18:00:09;7.60;;;3.73;;
14681;SDS011;7429;52.498;13.480;2023-04-25T18:03:30;9.90;;;4.10;;
14681;SDS011;7429;52.498;13.480;2023-04-25T18:11:20;8.67;;;3.87;;
14681;SDS011;7429;52.498;13.480;2023-04-25T18:14:23;8.63;;;3.47;;
14681;SDS011;7429;52.498;13.480;2023-04-25T18:17:26;6.77;;;3.90;;
14681;SDS011;7429;52.498;13.480;2023-04-25T18:20:31;5.73;;;3.77;;
14681;SDS011;7429;52.498;13.480;2023-04-25T18:23:34;8.87;;;3.43;;
14681;SDS011;7429;52.498;13.480;2023-04-25T18:26:45;10.70;;;3.80;;
14681;SDS011;7429;52.498;13.480;2023-04-25T18:29:50;6.93;;;3.50;;
14681;SDS011;7429;52.498;13.480;2023-04-25T18:32:54;5.83;;;3.40;;
14681;SDS011;7429;52.498;13.480;2023-04-25T18:36:00;4.20;;;3.53;;
14681;SDS011;7429;52.498;13.480;2023-04-25T18:39:04;6.93;;;4.00;;
14681;SDS011;7429;52.498;13.480;2023-04-25T18:42:22;8.00;;;3.70;;
14681;SDS011;7429;52.498;13.480;2023-04-25T18:45:25;7.60;;;3.50;;